Time;durP1;ratioP1;P1;durP2;ratioP2;P2;SDS_P1;SDS_P2;PMS_P1;PMS_P2;Temp;Humidity;BMP_temperature;BMP_pressure;BME280_temperature;BME280_humidity;BME280_pressure;Samples;Min_cycle;Max_cycle;Signal;HPM_P1;HPM_P2
2022/07/10 00:01:43;;;;;;;7.15;1.00;;;;;;;15.37;85.13;101364.53;5190007;28;20187;-74
2022/07/10 00:04:14;;;;;;;8.65;1.25;;;;;;;15.26;85.84;101361.44;5191520;28;20025;-74
2022/07/10 00:06:46;;;;;;;9.02;1.30;;;;;;;15.37;85.96;101368.00;5172123;28;20030;-74
2022/07/10 00:09:17;;;;;;;5.25;1.17;;;;;;;15.36;85.95;101357.53;5207167;28;20029;-74
2022/07/10 00:11:47;;;;;;;4.85;0.93;;;;;;;15.26;87.04;101364.94;5176420;28;20099;-74
2022/07/10 00:14:17;;;;;;;6.00;1.20;;;;;;;15.39;85.91;101363.53;5199974;28;20021;-72
2022/07/10 00:16:48;;;;;;;6.07;0.95;;;;;;;15.30;86.49;101356.03;5186509;28;20038;-74
2022/07/10 00:19:18;;;;;;;5.70;1.10;;;;;;;15.30;86.40;101358.66;5191176;28;20534;-74
2022/07/10 00:21:49;;;;;;;6.80;1.00;;;;;;;15.11;87.40;101352.41;5208978;28;20029;-74
2022/07/10 00:24:19;;;;;;;8.90;1.35;;;;;;;15.24;86.73;101356.25;5188915;28;20038;-74
2022/07/10 00:26:49;;;;;;;6.85;1.30;;;;;;;15.36;86.00;101350.47;5192880;28;20029;-74
2022/07/10 00:29:20;;;;;;;11.35;1.25;;;;;;;15.29;86.47;101349.03;5187302;28;20064;-74
2022/07/10 00:31:50;;;;;;;7.30;1.23;;;;;;;15.35;86.44;101346.13;5193610;28;20033;-74
2022/07/10 00:34:20;;;;;;;7.03;1.23;;;;;;;15.28;85.57;101346.44;5188929;28;20021;-74
2022/07/10 00:36:51;;;;;;;8.25;1.30;;;;;;;15.21;86.50;101351.09;5191255;28;20069;-74
2022/07/10 00:39:21;;;;;;;7.28;1.02;;;;;;;15.14;86.09;101347.03;5188773;28;20021;-74
2022/07/10 00:41:52;;;;;;;6.95;0.90;;;;;;;15.30;86.25;101357.78;5186748;28;20061;-74
2022/07/10 00:44:22;;;;;;;9.07;1.33;;;;;;;15.21;86.26;101353.72;5187788;28;20087;-74
2022/07/10 00:46:52;;;;;;;6.82;1.27;;;;;;;15.23;85.90;101359.81;5189295;28;20029;-74
2022/07/10 00:49:22;;;;;;;6.00;1.20;;;;;;;15.26;85.51;101343.00;5186695;28;20531;-75
2022/07/10 00:51:53;;;;;;;6.82;1.00;;;;;;;15.23;85.61;101354.56;5192747;28;20025;-74
2022/07/10 00:54:24;;;;;;;7.25;1.27;;;;;;;15.27;85.77;101347.34;5187428;28;20476;-74
2022/07/10 00:56:55;;;;;;;7.68;1.10;;;;;;;15.18;85.87;101343.31;5174053;28;20064;-74
2022/07/10 00:59:25;;;;;;;6.68;1.00;;;;;;;15.21;85.25;101343.19;5203980;28;20021;-74
2022/07/10 01:01:56;;;;;;;6.95;0.90;;;;;;;15.10;84.69;101348.06;5190124;28;20037;-74
2022/07/10 01:04:26;;;;;;;6.18;0.90;;;;;;;14.94;85.54;101352.25;5204497;28;20434;-73
2022/07/10 01:06:57;;;;;;;7.60;1.13;;;;;;;14.83;88.23;101354.47;5190378;28;20041;-73
2022/07/10 01:09:30;;;;;;;5.60;0.80;;;;;;;14.77;88.97;101345.94;5189426;28;20033;-74
2022/07/10 01:12:02;;;;;;;7.25;0.75;;;;;;;14.75;89.30;101354.84;5185489;28;20124;-74
2022/07/10 01:14:35;;;;;;;7.90;1.23;;;;;;;14.80;89.69;101347.63;5188958;28;20614;-74
2022/07/10 01:17:08;;;;;;;7.85;1.00;;;;;;;14.64;91.95;101357.03;5188704;28;20021;-73
2022/07/10 01:19:38;;;;;;;6.53;0.95;;;;;;;14.81;91.33;101351.97;5190290;28;20116;-74
2022/07/10 01:22:09;;;;;;;5.50;0.85;;;;;;;14.83;91.24;101354.47;5187999;28;20168;-74
2022/07/10 01:24:39;;;;;;;8.50;1.02;;;;;;;14.82;91.26;101359.81;5206048;28;20059;-74
2022/07/10 01:27:09;;;;;;;7.30;1.63;;;;;;;14.81;91.56;101346.69;5187745;28;20037;-74
2022/07/10 01:29:40;;;;;;;5.07;1.30;;;;;;;14.82;94.14;101351.03;5189344;28;20021;-74
2022/07/10 01:32:11;;;;;;;8.00;1.20;;;;;;;14.62;96.02;101343.94;5189099;28;20040;-74
2022/07/10 01:34:41;;;;;;;7.78;1.02;;;;;;;14.53;96.73;101343.44;5190615;28;20540;-74
2022/07/10 01:37:12;;;;;;;8.00;0.93;;;;;;;14.62;97.41;101341.28;5187590;28;20036;-74
2022/07/10 01:39:42;;;;;;;7.07;1.25;;;;;;;14.58;96.87;101338.88;5188000;28;20030;-74
2022/07/10 01:42:12;;;;;;;7.97;1.48;;;;;;;14.52;96.66;101341.72;5186558;28;20029;-74
2022/07/10 01:44:43;;;;;;;8.60;1.40;;;;;;;14.56;97.39;101344.19;5187695;28;20022;-74
2022/07/10 01:47:13;;;;;;;8.40;1.27;;;;;;;14.57;99.68;101339.78;5187698;28;20026;-74
2022/07/10 01:49:43;;;;;;;7.32;1.02;;;;;;;14.53;100.00;101339.03;5191180;28;20030;-73
2022/07/10 01:52:14;;;;;;;6.82;1.20;;;;;;;14.46;100.00;101337.56;5171301;28;20066;-74
2022/07/10 01:54:44;;;;;;;8.15;1.75;;;;;;;14.40;100.00;101342.22;5189913;28;20026;-74
2022/07/10 01:57:15;;;;;;;7.68;1.13;;;;;;;14.31;100.00;101337.31;5186773;28;20129;-74
2022/07/10 01:59:45;;;;;;;5.40;1.27;;;;;;;14.32;100.00;101328.50;5206393;28;20049;-74
2022/07/10 02:02:15;;;;;;;8.60;1.30;;;;;;;14.18;100.00;101330.81;5188185;28;20133;-74
2022/07/10 02:04:46;;;;;;;7.72;1.35;;;;;;;14.28;100.00;101325.13;5190070;28;20117;-74
2022/07/10 02:07:18;;;;;;;6.68;1.25;;;;;;;14.32;100.00;101323.25;5186715;28;20423;-74
2022/07/10 02:09:49;;;;;;;8.27;1.40;;;;;;;14.10;100.00;101319.69;5188810;28;20065;-73
2022/07/10 02:12:20;;;;;;;9.85;1.02;;;;;;;14.08;100.00;101326.78;5187511;28;20026;-74
2022/07/10 02:14:50;;;;;;;6.63;1.10;;;;;;;14.05;100.00;101329.53;5186133;28;20498;-74
2022/07/10 02:17:21;;;;;;;8.80;1.10;;;;;;;14.22;100.00;101332.41;5188124;28;20034;-74
2022/07/10 02:19:51;;;;;;;6.88;1.15;;;;;;;14.13;100.00;101322.22;5190348;28;20247;-74
2022/07/10 02:22:21;;;;;;;6.97;1.17;;;;;;;14.05;100.00;101321.66;5186977;28;20030;-74
2022/07/10 02:24:53;;;;;;;6.80;0.80;;;;;;;14.14;100.00;101313.41;5189595;28;20053;-74
2022/07/10 02:27:23;;;;;;;10.23;1.40;;;;;;;14.19;100.00;101311.47;5186149;28;20032;-74
2022/07/10 02:29:53;;;;;;;7.00;1.08;;;;;;;14.38;100.00;101317.72;5189442;28;20033;-74
2022/07/10 02:32:24;;;;;;;6.10;1.00;;;;;;;14.38;100.00;101318.59;5189582;28;20028;-74
2022/07/10 02:34:54;;;;;;;5.13;0.90;;;;;;;14.34;100.00;101316.16;5193427;28;20549;-74
2022/07/10 02:37:25;;;;;;;7.43;1.33;;;;;;;14.33;100.00;101317.06;5206967;28;20483;-75
2022/07/10 02:39:55;;;;;;;10.95;1.65;;;;;;;14.43;100.00;101303.50;5191281;28;20040;-74
2022/07/10 02:42:26;;;;;;;5.90;1.13;;;;;;;14.35;99.81;101305.56;5190013;28;20029;-74
2022/07/10 02:44:56;;;;;;;6.15;1.27;;;;;;;14.40;99.37;101305.41;5190669;28;20200;-74
2022/07/10 02:47:26;;;;;;;9.95;1.55;;;;;;;14.31;98.82;101300.50;5191141;28;20030;-74
2022/07/10 02:49:57;;;;;;;6.50;1.15;;;;;;;14.40;97.33;101306.25;5194204;28;20059;-74
2022/07/10 02:52:30;;;;;;;5.68;0.80;;;;;;;14.45;96.85;101300.81;5190380;28;20424;-74
2022/07/10 02:55:00;;;;;;;6.22;1.25;;;;;;;14.43;96.09;101292.97;5192375;28;20287;-74
2022/07/10 02:57:31;;;;;;;6.93;0.90;;;;;;;14.32;96.68;101302.22;5190296;28;20025;-74
2022/07/10 03:00:01;;;;;;;8.50;1.15;;;;;;;14.34;95.93;101290.72;5193596;28;20426;-74
2022/07/10 03:02:32;;;;;;;7.22;1.15;;;;;;;14.49;96.09;101294.50;5207728;28;20438;-74
2022/07/10 03:05:02;;;;;;;9.73;1.55;;;;;;;14.53;93.37;101290.81;5191957;28;20048;-74
2022/07/10 03:07:33;;;;;;;6.35;1.13;;;;;;;14.60;93.42;101297.56;5190996;28;20025;-74
2022/07/10 03:10:03;;;;;;;4.18;0.90;;;;;;;14.55;93.39;101294.25;5190527;28;20030;-73
2022/07/10 03:12:34;;;;;;;5.18;0.70;;;;;;;14.61;93.69;101297.50;5171965;28;20533;-74
2022/07/10 03:15:05;;;;;;;6.28;1.00;;;;;;;14.61;92.82;101297.50;5191026;28;20053;-74
2022/07/10 03:17:36;;;;;;;7.28;1.20;;;;;;;14.56;92.30;101285.47;5192098;28;20372;-74
2022/07/10 03:20:08;;;;;;;5.22;1.20;;;;;;;14.55;92.78;101289.00;5190581;28;20565;-74
2022/07/10 03:22:38;;;;;;;7.32;1.00;;;;;;;14.58;92.70;101289.72;5191630;28;20044;-74
2022/07/10 03:25:09;;;;;;;7.57;1.15;;;;;;;14.57;92.21;101297.69;5190706;28;20045;-74
2022/07/10 03:27:40;;;;;;;6.60;1.35;;;;;;;14.56;93.24;101299.47;5191246;28;20034;-73
2022/07/10 03:30:10;;;;;;;5.82;0.85;;;;;;;14.53;94.10;101277.66;5189990;28;20048;-74
2022/07/10 03:32:41;;;;;;;4.45;0.80;;;;;;;14.50;92.95;101291.81;5191478;28;20036;-74
2022/07/10 03:35:11;;;;;;;4.55;1.00;;;;;;;14.48;93.23;101292.78;5190326;28;20483;-74
2022/07/10 03:37:42;;;;;;;4.72;1.10;;;;;;;14.47;93.61;101284.06;5191373;28;20045;-74
2022/07/10 03:40:13;;;;;;;8.45;0.88;;;;;;;14.42;94.90;101293.06;5189911;28;20032;-73
2022/07/10 03:42:43;;;;;;;10.50;1.30;;;;;;;14.32;96.12;101291.69;5187975;28;20033;-74
2022/07/10 03:45:14;;;;;;;6.57;1.10;;;;;;;14.23;95.97;101284.19;5192236;28;20025;-74
2022/07/10 03:47:44;;;;;;;6.88;0.80;;;;;;;14.21;98.09;101301.75;5192440;28;20029;-74
2022/07/10 03:50:14;;;;;;;6.03;0.93;;;;;;;14.10;100.00;101298.66;5189230;28;20026;-74
2022/07/10 03:52:46;;;;;;;3.58;0.68;;;;;;;13.99;100.00;101308.72;5193225;28;20083;-74
2022/07/10 03:55:16;;;;;;;6.78;0.95;;;;;;;14.03;100.00;101312.94;5189858;28;20026;-74
2022/07/10 03:58:02;;;;;;;7.13;1.08;;;;;;;13.89;100.00;101316.09;5191610;28;20026;-74
2022/07/10 04:00:32;;;;;;;7.00;1.40;;;;;;;13.79;100.00;101301.59;5187079;28;20040;-73
2022/07/10 04:03:05;;;;;;;7.03;1.10;;;;;;;13.76;100.00;101312.19;5192115;28;20033;-74
2022/07/10 04:05:35;;;;;;;9.27;1.30;;;;;;;13.67;100.00;101306.44;5207041;28;20022;-74
2022/07/10 04:08:07;;;;;;;10.48;1.05;;;;;;;13.75;100.00;101301.75;5189878;28;20402;-71
2022/07/10 04:10:38;;;;;;;6.30;1.17;;;;;;;13.79;100.00;101300.72;5204645;28;20116;-74
2022/07/10 04:13:08;;;;;;;10.68;1.30;;;;;;;13.81;100.00;101296.28;5189362;28;20138;-74
2022/07/10 04:15:39;;;;;;;5.65;1.20;;;;;;;13.94;100.00;101302.78;5190119;28;20036;-74
2022/07/10 04:18:09;;;;;;;4.18;0.70;;;;;;;13.95;100.00;101296.63;5188873;28;20036;-74
2022/07/10 04:20:39;;;;;;;5.50;0.90;;;;;;;13.80;100.00;101291.94;5191764;28;20053;-74
2022/07/10 04:23:10;;;;;;;5.07;0.90;;;;;;;14.00;100.00;101289.41;5189059;28;20050;-74
2022/07/10 04:25:40;;;;;;;3.72;0.75;;;;;;;13.98;100.00;101296.50;5190555;28;20032;-74
2022/07/10 04:28:10;;;;;;;3.92;0.73;;;;;;;13.97;100.00;101300.03;5190139;28;20053;-74
2022/07/10 04:30:41;;;;;;;5.13;0.80;;;;;;;13.97;100.00;101295.66;5191780;28;20018;-74
2022/07/10 04:33:11;;;;;;;8.73;0.98;;;;;;;14.09;100.00;101286.44;5189076;28;20084;-74
2022/07/10 04:35:42;;;;;;;6.65;1.10;;;;;;;13.99;100.00;101279.81;5190687;28;20057;-74
2022/07/10 04:38:12;;;;;;;4.88;0.88;;;;;;;14.11;100.00;101281.97;5189712;28;20081;-73
2022/07/10 04:40:42;;;;;;;4.70;0.85;;;;;;;14.17;100.00;101282.63;5187694;28;20030;-74
2022/07/10 04:43:13;;;;;;;6.20;1.00;;;;;;;14.14;100.00;101290.63;5189410;28;20018;-74
2022/07/10 04:45:43;;;;;;;5.43;1.00;;;;;;;13.99;100.00;101298.22;5190067;28;20022;-74
2022/07/10 04:48:14;;;;;;;6.40;1.02;;;;;;;14.10;100.00;101294.25;5187279;28;20460;-74
2022/07/10 04:50:44;;;;;;;5.20;1.02;;;;;;;13.98;100.00;101291.25;5192157;28;20033;-74
2022/07/10 04:53:14;;;;;;;6.30;1.05;;;;;;;14.02;100.00;101300.72;5188046;28;20025;-74
2022/07/10 04:55:45;;;;;;;7.85;0.95;;;;;;;14.07;100.00;101301.41;5191284;28;20025;-74
2022/07/10 04:58:16;;;;;;;7.43;1.00;;;;;;;14.08;100.00;101300.50;5187496;28;20486;-73
2022/07/10 05:00:46;;;;;;;5.90;1.08;;;;;;;14.00;100.00;101305.19;5192326;28;20056;-74
2022/07/10 05:03:17;;;;;;;5.45;1.02;;;;;;;14.20;100.00;101302.66;5189147;28;20088;-74
2022/07/10 05:05:47;;;;;;;7.30;1.00;;;;;;;14.22;100.00;101301.72;5191087;28;20117;-74
2022/07/10 05:08:18;;;;;;;5.10;0.95;;;;;;;14.22;100.00;101306.13;5186858;28;20022;-72
2022/07/10 05:10:48;;;;;;;5.50;1.02;;;;;;;14.23;100.00;101302.59;5187122;28;20049;-74
2022/07/10 05:13:18;;;;;;;5.22;1.48;;;;;;;14.11;100.00;101301.22;5188737;28;20033;-74
2022/07/10 05:15:49;;;;;;;2.72;0.70;;;;;;;14.24;100.00;101306.91;5189180;28;20105;-74
2022/07/10 05:18:20;;;;;;;7.93;0.93;;;;;;;14.38;100.00;101304.59;5184850;28;20026;-74
2022/07/10 05:20:50;;;;;;;4.75;1.00;;;;;;;14.42;100.00;101304.41;5191013;28;20095;-74
2022/07/10 05:23:21;;;;;;;6.80;1.10;;;;;;;14.28;100.00;101306.72;5187021;28;20029;-74
2022/07/10 05:25:51;;;;;;;5.28;1.23;;;;;;;14.41;100.00;101301.84;5190921;28;20033;-74
2022/07/10 05:28:21;;;;;;;6.32;1.20;;;;;;;14.51;100.00;101300.56;5188064;28;20022;-74
2022/07/10 05:30:52;;;;;;;6.80;1.50;;;;;;;14.55;100.00;101296.88;5192478;28;20039;-74
2022/07/10 05:33:22;;;;;;;5.28;1.20;;;;;;;14.57;100.00;101298.53;5188285;28;20084;-74
2022/07/10 05:35:53;;;;;;;10.52;1.50;;;;;;;14.60;100.00;101298.41;5191826;28;20473;-74
2022/07/10 05:38:23;;;;;;;7.03;1.45;;;;;;;14.63;100.00;101300.06;5188334;28;20030;-74
2022/07/10 05:40:54;;;;;;;5.35;1.25;;;;;;;14.66;100.00;101299.94;5188116;28;20030;-74
2022/07/10 05:43:25;;;;;;;7.70;1.30;;;;;;;14.69;100.00;101294.56;5189894;28;20497;-74
2022/07/10 05:45:55;;;;;;;8.88;1.25;;;;;;;14.66;100.00;101298.19;5190549;28;20113;-74
2022/07/10 05:48:26;;;;;;;6.03;1.10;;;;;;;14.59;100.00;101295.84;5181362;28;20104;-74
2022/07/10 05:50:56;;;;;;;11.38;1.70;;;;;;;14.65;100.00;101298.22;5190656;28;20033;-74
2022/07/10 05:53:27;;;;;;;9.38;1.52;;;;;;;14.86;100.00;101298.22;5187656;28;20021;-74
2022/07/10 05:56:01;;;;;;;8.68;1.60;;;;;;;14.98;100.00;101297.72;5189678;28;20036;-73
2022/07/10 05:58:32;;;;;;;4.75;1.30;;;;;;;14.98;100.00;101301.19;5187984;28;20021;-74
2022/07/10 06:01:02;;;;;;;7.70;1.67;;;;;;;14.83;100.00;101300.97;5188946;28;20326;-74
2022/07/10 06:03:33;;;;;;;5.45;1.20;;;;;;;14.77;100.00;101311.75;5187975;28;20555;-74
2022/07/10 06:06:03;;;;;;;8.90;1.25;;;;;;;14.96;100.00;101307.44;5189738;28;20063;-75
2022/07/10 06:08:34;;;;;;;10.23;1.30;;;;;;;15.07;99.76;101308.72;5192013;28;20037;-74
2022/07/10 06:11:04;;;;;;;10.63;1.90;;;;;;;15.13;98.83;101305.81;5192168;28;20033;-74
2022/07/10 06:13:34;;;;;;;8.02;1.25;;;;;;;15.20;98.61;101309.88;5191221;28;20049;-74
2022/07/10 06:16:05;;;;;;;9.57;1.52;;;;;;;15.17;95.67;101306.53;5192479;28;20029;-72
2022/07/10 06:18:35;;;;;;;7.75;1.40;;;;;;;15.11;94.83;101296.25;5193076;28;20380;-74
2022/07/10 06:21:06;;;;;;;8.07;1.48;;;;;;;15.27;95.38;101300.81;5192376;28;20051;-74
2022/07/10 06:23:36;;;;;;;9.05;1.73;;;;;;;15.36;93.73;101304.88;5192364;28;20033;-74
2022/07/10 06:26:06;;;;;;;8.43;1.20;;;;;;;15.34;93.99;101299.66;5191839;28;20364;-74
2022/07/10 06:28:37;;;;;;;8.35;1.58;;;;;;;15.54;93.80;101302.25;5190382;28;20434;-75
2022/07/10 06:31:07;;;;;;;8.07;0.98;;;;;;;15.70;91.96;101308.56;5184927;28;20681;-74
2022/07/10 06:33:38;;;;;;;6.15;1.20;;;;;;;15.66;90.47;101303.50;5192376;28;20029;-74
2022/07/10 06:36:09;;;;;;;11.60;1.48;;;;;;;15.84;89.89;101300.06;5192923;28;20050;-74
2022/07/10 06:38:41;;;;;;;7.28;1.20;;;;;;;15.77;89.65;101310.03;5190640;28;20069;-74
2022/07/10 06:41:11;;;;;;;8.60;1.40;;;;;;;15.87;89.06;101306.03;5205261;28;20029;-74
2022/07/10 06:43:41;;;;;;;8.93;1.40;;;;;;;16.02;88.12;101315.03;5190027;28;20052;-74
2022/07/10 06:46:12;;;;;;;7.70;1.45;;;;;;;16.05;87.98;101305.19;5191993;28;20033;-74
2022/07/10 06:48:43;;;;;;;7.53;1.20;;;;;;;16.05;88.09;101310.44;5192074;28;20491;-74
2022/07/10 06:51:13;;;;;;;7.95;1.30;;;;;;;15.95;86.92;101308.31;5191372;28;20104;-74
2022/07/10 06:53:44;;;;;;;9.38;1.88;;;;;;;15.91;87.72;101309.38;5186656;28;20044;-74
2022/07/10 06:56:16;;;;;;;8.10;1.45;;;;;;;16.05;86.32;101296.44;5201457;28;20141;-74
2022/07/10 06:58:46;;;;;;;8.88;1.30;;;;;;;16.08;86.32;101298.91;5185377;28;20051;-74
2022/07/10 07:01:16;;;;;;;6.45;1.13;;;;;;;16.23;87.49;101298.19;5185232;28;20021;-73
2022/07/10 07:03:47;;;;;;;6.32;1.20;;;;;;;16.17;85.70;101298.47;5185892;28;20534;-73
2022/07/10 07:06:17;;;;;;;9.52;1.75;;;;;;;16.23;86.49;101303.47;5185816;28;20045;-72
2022/07/10 07:08:47;;;;;;;6.78;1.23;;;;;;;16.06;86.04;101293.69;5184443;28;20028;-72
2022/07/10 07:11:18;;;;;;;8.88;1.40;;;;;;;16.43;85.37;101303.41;5182263;28;20030;-72
2022/07/10 07:13:48;;;;;;;9.23;1.40;;;;;;;16.34;83.77;101303.81;5190315;28;20172;-73
2022/07/10 07:16:20;;;;;;;9.27;1.40;;;;;;;16.38;84.16;101302.78;5186722;28;20026;-73
2022/07/10 07:18:52;;;;;;;10.93;1.50;;;;;;;16.67;83.63;101304.84;5186392;28;20021;-74
2022/07/10 07:24:11;;;;;;;8.70;1.13;;;;;;;16.62;82.92;101296.31;5190878;28;20096;-74
2022/07/10 07:26:41;;;;;;;11.27;1.38;;;;;;;16.93;82.30;101302.63;5193219;28;20021;-74
2022/07/10 07:29:12;;;;;;;6.57;1.30;;;;;;;16.97;82.67;101301.59;5189051;28;20402;-74
2022/07/10 07:31:43;;;;;;;10.98;1.55;;;;;;;17.01;81.69;101301.31;5188699;28;20128;-74
2022/07/10 07:34:13;;;;;;;8.10;1.40;;;;;;;17.06;81.16;101290.53;5184508;28;20540;-74
2022/07/10 07:36:43;;;;;;;7.93;1.40;;;;;;;17.59;79.84;101296.56;5182580;28;20037;-74
2022/07/10 07:39:13;;;;;;;10.30;2.03;;;;;;;17.52;81.15;101301.34;5183288;28;20052;-74
2022/07/10 07:41:44;;;;;;;6.68;1.30;;;;;;;17.66;79.50;101303.28;5183364;28;20034;-75
2022/07/10 07:44:17;;;;;;;9.10;1.67;;;;;;;17.70;77.52;101291.59;5180304;28;20040;-74
2022/07/10 07:46:47;;;;;;;11.48;1.30;;;;;;;17.90;78.37;101289.59;5183466;28;20033;-74
2022/07/10 07:49:18;;;;;;;7.28;1.20;;;;;;;17.78;77.32;101289.38;5182052;28;20025;-73
2022/07/10 07:51:48;;;;;;;7.25;1.42;;;;;;;18.47;76.11;101296.13;5184219;28;20071;-74
2022/07/10 07:54:19;;;;;;;9.25;1.50;;;;;;;18.60;74.13;101286.53;5183132;28;20109;-74
2022/07/10 07:56:49;;;;;;;9.98;2.03;;;;;;;18.66;73.99;101286.22;5184693;28;20045;-74
2022/07/10 07:59:19;;;;;;;9.77;1.50;;;;;;;18.60;74.32;101281.25;5185703;28;20021;-74
2022/07/10 08:01:49;;;;;;;8.85;1.30;;;;;;;18.33;75.29;101285.47;5184844;28;20057;-74
2022/07/10 08:04:20;;;;;;;8.27;1.58;;;;;;;18.11;76.65;101276.97;5188078;28;20425;-74
2022/07/10 08:06:52;;;;;;;8.35;1.30;;;;;;;17.98;76.33;101282.06;5190574;28;20066;-74
2022/07/10 08:09:22;;;;;;;9.55;1.30;;;;;;;17.78;75.87;101278.78;5189055;28;20017;-75
2022/07/10 08:11:52;;;;;;;6.88;1.55;;;;;;;17.75;75.72;101278.97;5186872;28;20021;-74
2022/07/10 08:14:23;;;;;;;12.93;1.85;;;;;;;17.51;77.75;101278.47;5188977;28;20018;-74
2022/07/10 08:16:53;;;;;;;8.35;1.42;;;;;;;17.44;76.41;101285.03;5189988;28;20532;-74
2022/07/10 08:19:23;;;;;;;8.05;1.38;;;;;;;17.26;77.03;101282.44;5180714;28;20471;-74
2022/07/10 08:21:53;;;;;;;10.00;2.03;;;;;;;17.30;76.89;101281.38;5179346;28;20646;-71
2022/07/10 08:24:24;;;;;;;10.82;1.58;;;;;;;16.97;76.63;101277.81;5182055;28;20061;-74
2022/07/10 08:26:55;;;;;;;12.45;1.50;;;;;;;17.18;76.68;101279.34;5180284;28;20030;-74
2022/07/10 08:29:25;;;;;;;8.43;1.83;;;;;;;17.62;76.90;101277.94;5183735;28;20738;-74
2022/07/10 08:31:55;;;;;;;6.40;1.52;;;;;;;17.82;74.68;101264.50;5181624;28;20040;-73
2022/07/10 08:34:27;;;;;;;20.88;2.15;;;;;;;18.24;74.38;101272.69;5189322;28;20094;-74
2022/07/10 08:36:57;;;;;;;6.78;1.38;;;;;;;19.90;69.87;101266.19;5183032;28;20402;-74
2022/07/10 08:39:28;;;;;;;12.85;1.60;;;;;;;21.12;66.48;101259.00;5183665;28;20038;-74
2022/07/10 08:41:59;;;;;;;7.85;1.25;;;;;;;22.40;62.52;101248.88;5182457;28;20065;-74
2022/07/10 08:44:30;;;;;;;5.82;1.17;;;;;;;21.60;62.66;101253.78;5187140;28;20029;-74
2022/07/10 08:47:02;;;;;;;10.68;1.52;;;;;;;22.31;61.11;101248.66;5185952;28;20740;-75
2022/07/10 08:49:35;;;;;;;9.25;1.40;;;;;;;23.61;59.48;101231.47;5187617;28;20056;-74
2022/07/10 08:52:12;;;;;;;7.93;1.55;;;;;;;22.95;60.15;101249.13;5186779;28;20048;-74
2022/07/10 08:54:43;;;;;;;5.20;1.10;;;;;;;21.36;62.43;101246.66;5187923;28;20072;-74
2022/07/10 08:57:16;;;;;;;6.10;1.30;;;;;;;20.81;61.98;101251.34;5184831;28;20050;-74
2022/07/10 08:59:46;;;;;;;7.85;2.05;;;;;;;20.74;63.35;101245.56;5183729;28;20076;-74
2022/07/10 09:02:17;;;;;;;7.53;1.63;;;;;;;19.97;65.79;101251.56;5182827;28;20038;-73
2022/07/10 09:04:47;;;;;;;6.18;1.30;;;;;;;19.76;67.14;101244.97;5184284;28;20050;-74
2022/07/10 09:07:18;;;;;;;6.65;1.23;;;;;;;20.23;65.54;101248.16;5187749;28;20405;-74
2022/07/10 09:09:57;;;;;;;6.43;1.40;;;;;;;19.73;67.14;101253.13;5183722;28;20029;-74
2022/07/10 09:12:28;;;;;;;6.22;1.30;;;;;;;19.25;68.03;101256.13;5182891;28;20108;-74
2022/07/10 09:15:16;;;;;;;6.97;1.30;;;;;;;19.84;67.22;101242.72;5184584;28;20029;-74
2022/07/10 09:17:50;;;;;;;6.75;1.17;;;;;;;19.97;66.96;101243.63;5186223;28;20702;-73
2022/07/10 09:20:29;;;;;;;9.52;1.60;;;;;;;20.32;65.89;101242.22;5184085;28;20045;-74
2022/07/10 09:23:15;;;;;;;7.75;1.45;;;;;;;20.65;64.35;101245.34;5184119;28;20132;-74
2022/07/10 09:25:49;;;;;;;7.75;1.40;;;;;;;20.95;62.93;101253.97;5187504;28;20033;-74
2022/07/10 09:28:22;;;;;;;6.35;1.20;;;;;;;20.37;64.18;101242.81;5176747;28;20038;-74
2022/07/10 09:30:52;;;;;;;6.82;1.20;;;;;;;21.13;62.65;101247.41;5181600;28;20435;-74
2022/07/10 09:33:30;;;;;;;10.15;1.50;;;;;;;21.75;60.77;101247.41;5176541;28;20044;-74
2022/07/10 09:36:05;;;;;;;5.47;1.30;;;;;;;21.51;62.05;101253.56;5183674;28;20037;-74
2022/07/10 09:38:45;;;;;;;8.00;1.50;;;;;;;20.80;63.09;101239.00;5180706;28;20030;-74
2022/07/10 09:41:16;;;;;;;6.53;1.15;;;;;;;21.12;63.33;101245.69;5182470;28;20026;-74
2022/07/10 09:44:05;;;;;;;6.95;1.50;;;;;;;21.06;63.10;101233.66;5191248;28;20042;-74
2022/07/10 09:46:41;;;;;;;10.75;2.00;;;;;;;21.30;61.51;101225.81;5205283;28;20024;-71
2022/07/10 09:49:13;;;;;;;10.23;1.48;;;;;;;20.39;62.89;101224.97;5191589;28;20125;-74
2022/07/10 09:51:45;;;;;;;7.45;1.35;;;;;;;20.10;62.59;101231.31;5187732;28;20091;-73
2022/07/10 09:54:18;;;;;;;8.85;1.25;;;;;;;19.46;63.18;101241.56;5185800;28;20457;-74
2022/07/10 09:56:52;;;;;;;7.88;1.40;;;;;;;19.26;63.20;101233.13;5190110;28;20033;-73
2022/07/10 09:59:22;;;;;;;7.03;1.30;;;;;;;19.41;63.75;101235.69;5183805;28;20044;-74
2022/07/10 10:01:53;;;;;;;9.63;1.42;;;;;;;19.47;63.84;101234.47;5188328;28;20558;-74
2022/07/10 10:04:25;;;;;;;8.75;2.35;;;;;;;19.74;64.25;101222.13;5190660;28;20196;-73
2022/07/10 10:06:58;;;;;;;8.73;1.55;;;;;;;21.57;60.70;101210.59;5193297;28;20104;-74
2022/07/10 10:09:38;;;;;;;6.68;1.55;;;;;;;22.88;57.68;101195.41;5190928;28;20038;-74
2022/07/10 10:12:16;;;;;;;5.68;1.30;;;;;;;22.98;56.50;101185.72;5190344;28;20833;-74
2022/07/10 10:14:47;;;;;;;10.50;1.45;;;;;;;21.40;58.98;101198.47;5191567;28;20048;-75
2022/07/10 10:17:20;;;;;;;5.38;1.15;;;;;;;20.44;60.67;101214.88;5194048;28;20086;-74
2022/07/10 10:22:45;;;;;;;9.00;1.70;;;;;;;19.42;63.18;101221.50;5187061;28;20095;-73
2022/07/10 10:25:17;;;;;;;11.65;1.42;;;;;;;20.17;62.09;101210.53;5196209;28;20107;-73
2022/07/10 10:27:47;;;;;;;6.05;1.38;;;;;;;20.76;60.76;101198.50;5190580;28;20029;-73
2022/07/10 10:30:18;;;;;;;7.40;1.67;;;;;;;20.39;61.00;101195.75;5188867;28;20034;-73
2022/07/10 10:32:48;;;;;;;7.35;1.17;;;;;;;20.40;61.63;101223.16;5194281;28;20033;-73
2022/07/10 10:35:47;;;;;;;9.07;1.30;;;;;;;20.92;60.20;101209.00;5190599;28;20123;-73
2022/07/10 10:38:17;;;;;;;9.20;1.77;;;;;;;21.23;59.92;101203.28;5210563;28;20029;-73
2022/07/10 10:40:48;;;;;;;7.80;1.30;;;;;;;21.56;59.41;101203.56;5185349;28;20464;-73
2022/07/10 10:43:19;;;;;;;9.32;1.60;;;;;;;21.33;58.84;101206.97;5204102;28;20061;-73
2022/07/10 10:45:51;;;;;;;7.43;1.73;;;;;;;21.39;57.11;101198.59;5190950;28;20052;-74
2022/07/10 10:48:23;;;;;;;6.22;1.38;;;;;;;21.43;57.52;101187.59;5188552;28;20029;-73
2022/07/10 10:50:53;;;;;;;6.25;1.38;;;;;;;21.32;59.27;101202.63;5195670;28;20118;-74
2022/07/10 10:53:28;;;;;;;4.47;1.08;;;;;;;21.04;60.05;101202.84;5185748;28;20479;-74
2022/07/10 10:56:02;;;;;;;10.55;1.27;;;;;;;20.48;61.02;101215.53;5190763;28;20056;-74
2022/07/10 10:58:39;;;;;;;7.60;1.20;;;;;;;20.26;62.22;101217.91;5189187;28;20315;-73
2022/07/10 11:01:25;;;;;;;8.10;1.30;;;;;;;19.81;63.84;101229.59;5189434;28;20045;-73
2022/07/10 11:04:08;;;;;;;7.03;1.40;;;;;;;19.79;63.69;101220.06;5185102;28;20029;-74
2022/07/10 11:06:52;;;;;;;7.03;1.30;;;;;;;20.24;63.12;101220.66;5185084;28;20038;-74
2022/07/10 11:09:24;;;;;;;5.18;1.30;;;;;;;20.69;63.26;101215.81;5184838;28;20056;-74
2022/07/10 11:12:08;;;;;;;9.20;1.30;;;;;;;20.84;62.51;101208.63;5187297;28;20079;-74
2022/07/10 11:14:48;;;;;;;8.98;1.55;;;;;;;21.20;61.13;101195.50;5184407;28;20137;-74
2022/07/10 11:17:27;;;;;;;10.13;1.40;;;;;;;21.64;58.71;101193.25;5191009;28;20029;-74
2022/07/10 11:20:01;;;;;;;6.15;1.10;;;;;;;21.92;58.85;101196.47;5201191;28;20547;-74
2022/07/10 11:22:56;;;;;;;9.23;1.48;;;;;;;21.81;56.45;101203.53;5186367;28;20116;-74
2022/07/10 11:25:44;;;;;;;4.80;1.13;;;;;;;21.78;55.92;101195.78;5181924;28;20026;-73
2022/07/10 11:28:21;;;;;;;4.07;0.98;;;;;;;21.84;55.61;101185.56;5183076;28;20029;-73
2022/07/10 11:30:53;;;;;;;15.13;2.10;;;;;;;21.76;57.05;101192.38;5178074;28;20030;-74
2022/07/10 11:33:27;;;;;;;40.70;3.95;;;;;;;21.67;57.19;101195.69;5182445;28;20229;-74
2022/07/10 11:35:57;;;;;;;83.30;8.00;;;;;;;21.22;58.45;101188.28;5187787;28;20558;-74
2022/07/10 11:38:28;;;;;;;5.18;1.15;;;;;;;21.33;58.80;101188.34;5185382;28;20042;-73
2022/07/10 11:40:58;;;;;;;8.68;1.38;;;;;;;20.77;61.46;101186.94;5179162;28;20403;-74
2022/07/10 11:43:28;;;;;;;27.00;3.50;;;;;;;21.26;61.64;101189.75;5181279;28;20041;-74
2022/07/10 11:46:00;;;;;;;53.05;5.10;;;;;;;21.26;60.65;101201.22;5182987;28;20018;-74
2022/07/10 11:48:38;;;;;;;17.77;2.55;;;;;;;21.25;60.27;101194.22;5198285;28;20499;-74